sensor_id;sensor_type;location;lat;lon;timestamp;pressure;altitude;pressure_sealevel;temperature;humidity
83122;BME280;73002;47.238;9.006;2023-12-20T00:02:19;95160.44;;;6.71;59.19
83122;BME280;73002;47.238;9.006;2023-12-20T00:04:45;95166.16;;;6.48;59.75
83122;BME280;73002;47.238;9.006;2023-12-20T00:07:10;95161.44;;;6.43;59.55
83122;BME280;73002;47.238;9.006;2023-12-20T00:09:36;95156.25;;;6.43;60.03
83122;BME280;73002;47.238;9.006;2023-12-20T00:12:01;95130.94;;;6.47;59.45
83122;BME280;73002;47.238;9.006;2023-12-20T00:14:26;95134.34;;;6.48;59.40
83122;BME280;73002;47.238;9.006;2023-12-20T00:16:52;95137.19;;;6.36;59.66
83122;BME280;73002;47.238;9.006;2023-12-20T00:19:17;95130.84;;;6.57;59.47
83122;BME280;73002;47.238;9.006;2023-12-20T00:21:44;95125.50;;;6.58;58.71
83122;BME280;73002;47.238;9.006;2023-12-20T00:24:10;95131.16;;;6.62;58.52
83122;BME280;73002;47.238;9.006;2023-12-20T00:26:35;95128.84;;;6.51;59.17
83122;BME280;73002;47.238;9.006;2023-12-20T00:29:00;95124.53;;;5.99;60.25
83122;BME280;73002;47.238;9.006;2023-12-20T00:31:26;95102.06;;;6.17;59.09
83122;BME280;73002;47.238;9.006;2023-12-20T00:33:51;95103.63;;;6.44;58.15
83122;BME280;73002;47.238;9.006;2023-12-20T00:36:17;95114.72;;;6.29;57.88
83122;BME280;73002;47.238;9.006;2023-12-20T00:38:42;95111.78;;;6.23;58.53
83122;BME280;73002;47.238;9.006;2023-12-20T00:41:08;95114.19;;;6.51;57.73
83122;BME280;73002;47.238;9.006;2023-12-20T00:43:33;95128.44;;;6.63;57.58
83122;BME280;73002;47.238;9.006;2023-12-20T00:46:00;95128.53;;;6.96;57.12
83122;BME280;73002;47.238;9.006;2023-12-20T00:48:26;95132.16;;;7.20;55.89
83122;BME280;73002;47.238;9.006;2023-12-20T00:50:55;95136.66;;;7.10;56.58
83122;BME280;73002;47.238;9.006;2023-12-20T00:53:24;95138.44;;;7.09;56.37
83122;BME280;73002;47.238;9.006;2023-12-20T00:55:49;95146.00;;;6.94;56.96
83122;BME280;73002;47.238;9.006;2023-12-20T00:58:15;95129.84;;;7.00;56.49
83122;BME280;73002;47.238;9.006;2023-12-20T01:00:40;95127.16;;;6.76;56.42
83122;BME280;73002;47.238;9.006;2023-12-20T01:03:08;95134.38;;;6.98;56.28
83122;BME280;73002;47.238;9.006;2023-12-20T01:05:33;95129.00;;;6.49;57.65
83122;BME280;73002;47.238;9.006;2023-12-20T01:07:59;95125.38;;;6.34;58.30
83122;BME280;73002;47.238;9.006;2023-12-20T01:10:25;95131.97;;;6.28;58.57
83122;BME280;73002;47.238;9.006;2023-12-20T01:12:53;95125.75;;;6.13;58.52
83122;BME280;73002;47.238;9.006;2023-12-20T01:15:18;95135.50;;;6.53;57.49
83122;BME280;73002;47.238;9.006;2023-12-20T01:17:44;95121.41;;;6.82;56.73
83122;BME280;73002;47.238;9.006;2023-12-20T01:20:09;95142.47;;;7.12;55.71
83122;BME280;73002;47.238;9.006;2023-12-20T01:22:35;95137.94;;;7.14;56.29
83122;BME280;73002;47.238;9.006;2023-12-20T01:25:01;95131.16;;;7.04;56.53
83122;BME280;73002;47.238;9.006;2023-12-20T01:27:27;95130.81;;;6.99;56.73
83122;BME280;73002;47.238;9.006;2023-12-20T01:29:53;95152.38;;;7.16;56.46
83122;BME280;73002;47.238;9.006;2023-12-20T01:32:18;95148.00;;;7.17;56.63
83122;BME280;73002;47.238;9.006;2023-12-20T01:34:43;95145.41;;;7.17;56.36
83122;BME280;73002;47.238;9.006;2023-12-20T01:37:09;95150.22;;;7.03;56.50
83122;BME280;73002;47.238;9.006;2023-12-20T01:39:34;95166.75;;;7.27;55.43
83122;BME280;73002;47.238;9.006;2023-12-20T01:42:00;95159.78;;;7.11;56.50
83122;BME280;73002;47.238;9.006;2023-12-20T01:44:25;95152.16;;;7.10;56.25
83122;BME280;73002;47.238;9.006;2023-12-20T01:46:52;95152.47;;;6.98;56.03
83122;BME280;73002;47.238;9.006;2023-12-20T01:49:18;95144.84;;;6.89;55.94
83122;BME280;73002;47.238;9.006;2023-12-20T01:51:44;95144.41;;;7.01;55.89
83122;BME280;73002;47.238;9.006;2023-12-20T01:54:10;95142.44;;;6.95;55.59
83122;BME280;73002;47.238;9.006;2023-12-20T01:56:36;95139.16;;;7.36;53.63
83122;BME280;73002;47.238;9.006;2023-12-20T01:59:03;95141.25;;;7.40;53.81
83122;BME280;73002;47.238;9.006;2023-12-20T02:01:30;95150.81;;;7.56;52.89
83122;BME280;73002;47.238;9.006;2023-12-20T02:03:56;95144.66;;;7.49;53.37
83122;BME280;73002;47.238;9.006;2023-12-20T02:06:23;95138.19;;;7.45;52.64
83122;BME280;73002;47.238;9.006;2023-12-20T02:08:50;95133.31;;;7.42;50.78
83122;BME280;73002;47.238;9.006;2023-12-20T02:11:15;95118.91;;;7.23;52.59
83122;BME280;73002;47.238;9.006;2023-12-20T02:13:41;95125.59;;;7.67;51.26
83122;BME280;73002;47.238;9.006;2023-12-20T02:16:06;95119.91;;;7.55;51.30
83122;BME280;73002;47.238;9.006;2023-12-20T02:18:33;95130.44;;;7.37;51.95
83122;BME280;73002;47.238;9.006;2023-12-20T02:20:58;95127.84;;;7.37;51.59
83122;BME280;73002;47.238;9.006;2023-12-20T02:23:24;95113.13;;;7.37;51.27
83122;BME280;73002;47.238;9.006;2023-12-20T02:25:49;95104.53;;;7.78;48.96
83122;BME280;73002;47.238;9.006;2023-12-20T02:28:15;95091.47;;;7.71;48.57
83122;BME280;73002;47.238;9.006;2023-12-20T02:30:41;95078.97;;;7.75;47.42
83122;BME280;73002;47.238;9.006;2023-12-20T02:33:10;95099.19;;;7.96;48.54
83122;BME280;73002;47.238;9.006;2023-12-20T02:35:37;95107.88;;;8.36;47.99
83122;BME280;73002;47.238;9.006;2023-12-20T02:38:03;95100.81;;;7.97;48.89
83122;BME280;73002;47.238;9.006;2023-12-20T02:40:28;95091.34;;;8.20;48.79
83122;BME280;73002;47.238;9.006;2023-12-20T02:42:53;95088.75;;;8.29;48.65
83122;BME280;73002;47.238;9.006;2023-12-20T02:45:19;95091.00;;;8.40;48.37
83122;BME280;73002;47.238;9.006;2023-12-20T02:47:46;95096.50;;;8.37;48.20
83122;BME280;73002;47.238;9.006;2023-12-20T02:50:11;95087.72;;;8.54;47.30
83122;BME280;73002;47.238;9.006;2023-12-20T02:52:37;95086.25;;;8.68;47.34
83122;BME280;73002;47.238;9.006;2023-12-20T02:55:02;95085.66;;;8.50;46.71
83122;BME280;73002;47.238;9.006;2023-12-20T02:57:28;95072.22;;;8.38;47.11
83122;BME280;73002;47.238;9.006;2023-12-20T02:59:53;95083.81;;;8.58;46.73
83122;BME280;73002;47.238;9.006;2023-12-20T03:02:19;95078.63;;;8.67;46.66
83122;BME280;73002;47.238;9.006;2023-12-20T03:04:44;95091.75;;;8.96;46.48
83122;BME280;73002;47.238;9.006;2023-12-20T03:07:14;95092.66;;;8.80;47.26
83122;BME280;73002;47.238;9.006;2023-12-20T03:09:39;95076.25;;;9.11;46.13
83122;BME280;73002;47.238;9.006;2023-12-20T03:12:05;95067.75;;;9.03;46.07
83122;BME280;73002;47.238;9.006;2023-12-20T03:14:30;95091.81;;;9.43;46.01
83122;BME280;73002;47.238;9.006;2023-12-20T03:16:56;95088.69;;;9.24;47.36
83122;BME280;73002;47.238;9.006;2023-12-20T03:19:21;95092.84;;;9.02;48.81
83122;BME280;73002;47.238;9.006;2023-12-20T03:21:46;95123.75;;;9.20;48.37
83122;BME280;73002;47.238;9.006;2023-12-20T03:24:12;95126.72;;;9.09;49.60
83122;BME280;73002;47.238;9.006;2023-12-20T03:26:37;95137.69;;;9.19;48.73
83122;BME280;73002;47.238;9.006;2023-12-20T03:29:03;95128.63;;;9.15;49.48
83122;BME280;73002;47.238;9.006;2023-12-20T03:31:28;95138.44;;;9.05;49.35
83122;BME280;73002;47.238;9.006;2023-12-20T03:33:54;95127.44;;;8.94;49.30
83122;BME280;73002;47.238;9.006;2023-12-20T03:36:20;95143.34;;;8.91;50.19
83122;BME280;73002;47.238;9.006;2023-12-20T03:38:45;95149.91;;;8.71;51.45
83122;BME280;73002;47.238;9.006;2023-12-20T03:41:11;95159.00;;;8.58;52.88
83122;BME280;73002;47.238;9.006;2023-12-20T03:43:37;95157.00;;;8.77;52.67
83122;BME280;73002;47.238;9.006;2023-12-20T03:46:03;95169.22;;;8.60;53.91
83122;BME280;73002;47.238;9.006;2023-12-20T03:48:29;95169.84;;;8.62;53.68
83122;BME280;73002;47.238;9.006;2023-12-20T03:50:55;95176.50;;;8.56;53.86
83122;BME280;73002;47.238;9.006;2023-12-20T03:53:21;95176.53;;;8.48;54.97
83122;BME280;73002;47.238;9.006;2023-12-20T03:55:47;95180.09;;;8.47;55.15
83122;BME280;73002;47.238;9.006;2023-12-20T03:58:12;95168.94;;;8.30;56.11
83122;BME280;73002;47.238;9.006;2023-12-20T04:00:38;95177.88;;;8.11;56.93
83122;BME280;73002;47.238;9.006;2023-12-20T04:03:05;95172.84;;;7.77;58.32
83122;BME280;73002;47.238;9.006;2023-12-20T04:05:30;95175.75;;;7.82;58.58
83122;BME280;73002;47.238;9.006;2023-12-20T04:07:56;95164.59;;;7.81;58.88
83122;BME280;73002;47.238;9.006;2023-12-20T04:10:21;95169.59;;;7.75;58.83
83122;BME280;73002;47.238;9.006;2023-12-20T04:12:47;95167.81;;;8.08;59.03
83122;BME280;73002;47.238;9.006;2023-12-20T04:15:12;95162.78;;;8.07;58.92
83122;BME280;73002;47.238;9.006;2023-12-20T04:17:38;95148.38;;;8.12;58.90
83122;BME280;73002;47.238;9.006;2023-12-20T04:20:03;95138.53;;;7.50;61.05
83122;BME280;73002;47.238;9.006;2023-12-20T04:22:29;95138.47;;;6.67;63.99
83122;BME280;73002;47.238;9.006;2023-12-20T04:24:54;95147.63;;;6.95;63.33
83122;BME280;73002;47.238;9.006;2023-12-20T04:27:20;95138.59;;;7.16;62.61
83122;BME280;73002;47.238;9.006;2023-12-20T04:29:46;95133.44;;;7.16;62.04
83122;BME280;73002;47.238;9.006;2023-12-20T04:32:11;95145.09;;;7.20;62.46
83122;BME280;73002;47.238;9.006;2023-12-20T04:34:37;95138.00;;;7.30;62.09
83122;BME280;73002;47.238;9.006;2023-12-20T04:37:02;95144.84;;;7.72;60.76
83122;BME280;73002;47.238;9.006;2023-12-20T04:39:28;95156.41;;;7.19;62.73
83122;BME280;73002;47.238;9.006;2023-12-20T04:41:53;95157.09;;;7.46;61.46
83122;BME280;73002;47.238;9.006;2023-12-20T04:44:19;95152.13;;;7.60;61.10
83122;BME280;73002;47.238;9.006;2023-12-20T04:46:44;95156.81;;;7.49;61.51
83122;BME280;73002;47.238;9.006;2023-12-20T04:49:10;95170.69;;;7.48;61.56
83122;BME280;73002;47.238;9.006;2023-12-20T04:51:35;95179.13;;;7.74;60.96
83122;BME280;73002;47.238;9.006;2023-12-20T04:54:01;95179.81;;;7.85;60.89
83122;BME280;73002;47.238;9.006;2023-12-20T04:56:27;95174.44;;;7.86;60.88
83122;BME280;73002;47.238;9.006;2023-12-20T04:58:53;95187.25;;;8.04;60.65
83122;BME280;73002;47.238;9.006;2023-12-20T05:01:19;95183.03;;;8.03;60.76
83122;BME280;73002;47.238;9.006;2023-12-20T05:03:44;95205.06;;;8.15;60.62
83122;BME280;73002;47.238;9.006;2023-12-20T05:06:10;95196.31;;;8.08;60.78
83122;BME280;73002;47.238;9.006;2023-12-20T05:08:35;95205.53;;;8.19;60.86
83122;BME280;73002;47.238;9.006;2023-12-20T05:11:01;95223.84;;;8.17;61.50
83122;BME280;73002;47.238;9.006;2023-12-20T05:13:28;95218.00;;;7.99;61.68
83122;BME280;73002;47.238;9.006;2023-12-20T05:15:53;95237.13;;;8.06;61.90
83122;BME280;73002;47.238;9.006;2023-12-20T05:18:20;95237.25;;;8.05;61.80
83122;BME280;73002;47.238;9.006;2023-12-20T05:20:46;95235.66;;;8.12;61.88
83122;BME280;73002;47.238;9.006;2023-12-20T05:23:11;95240.84;;;8.20;61.46
83122;BME280;73002;47.238;9.006;2023-12-20T05:25:38;95245.53;;;8.16;61.60
83122;BME280;73002;47.238;9.006;2023-12-20T05:28:04;95242.28;;;8.06;61.90
83122;BME280;73002;47.238;9.006;2023-12-20T05:30:29;95248.44;;;8.13;61.55
83122;BME280;73002;47.238;9.006;2023-12-20T05:32:55;95258.94;;;7.95;62.21
83122;BME280;73002;47.238;9.006;2023-12-20T05:35:20;95250.22;;;8.05;61.92
83122;BME280;73002;47.238;9.006;2023-12-20T05:37:47;95254.09;;;8.09;62.08
83122;BME280;73002;47.238;9.006;2023-12-20T05:40:14;95254.75;;;8.35;61.44
83122;BME280;73002;47.238;9.006;2023-12-20T05:42:39;95258.00;;;7.88;62.63
83122;BME280;73002;47.238;9.006;2023-12-20T05:45:05;95257.81;;;7.81;62.68
83122;BME280;73002;47.238;9.006;2023-12-20T05:47:31;95251.31;;;7.69;63.10
83122;BME280;73002;47.238;9.006;2023-12-20T05:49:57;95260.88;;;7.77;62.50
83122;BME280;73002;47.238;9.006;2023-12-20T05:52:22;95268.72;;;7.51;63.70
83122;BME280;73002;47.238;9.006;2023-12-20T05:54:49;95252.91;;;7.70;62.85
83122;BME280;73002;47.238;9.006;2023-12-20T05:57:15;95263.13;;;7.72;63.02
83122;BME280;73002;47.238;9.006;2023-12-20T05:59:40;95260.19;;;7.75;63.14
83122;BME280;73002;47.238;9.006;2023-12-20T06:02:06;95266.84;;;7.77;62.96
83122;BME280;73002;47.238;9.006;2023-12-20T06:04:32;95264.88;;;7.63;63.27
83122;BME280;73002;47.238;9.006;2023-12-20T06:06:58;95265.56;;;7.73;63.13
83122;BME280;73002;47.238;9.006;2023-12-20T06:09:23;95252.91;;;7.70;63.18
83122;BME280;73002;47.238;9.006;2023-12-20T06:11:49;95261.56;;;7.36;63.93
83122;BME280;73002;47.238;9.006;2023-12-20T06:14:15;95268.44;;;7.62;63.74
83122;BME280;73002;47.238;9.006;2023-12-20T06:16:41;95270.63;;;7.06;64.87
83122;BME280;73002;47.238;9.006;2023-12-20T06:19:06;95271.66;;;6.87;66.05
83122;BME280;73002;47.238;9.006;2023-12-20T06:21:32;95253.97;;;7.00;65.18
83122;BME280;73002;47.238;9.006;2023-12-20T06:24:00;95261.78;;;7.09;65.08
83122;BME280;73002;47.238;9.006;2023-12-20T06:26:25;95267.44;;;7.55;63.66
83122;BME280;73002;47.238;9.006;2023-12-20T06:28:51;95254.22;;;7.66;62.96
83122;BME280;73002;47.238;9.006;2023-12-20T06:31:16;95250.25;;;7.37;63.85
83122;BME280;73002;47.238;9.006;2023-12-20T06:33:43;95255.66;;;7.60;63.33
83122;BME280;73002;47.238;9.006;2023-12-20T06:36:11;95254.72;;;7.78;63.29
83122;BME280;73002;47.238;9.006;2023-12-20T06:38:38;95243.81;;;7.50;63.75
83122;BME280;73002;47.238;9.006;2023-12-20T06:41:04;95257.00;;;7.81;62.48
83122;BME280;73002;47.238;9.006;2023-12-20T06:43:29;95245.03;;;7.88;62.17
83122;BME280;73002;47.238;9.006;2023-12-20T06:45:56;95242.13;;;8.08;61.29
83122;BME280;73002;47.238;9.006;2023-12-20T06:48:21;95240.00;;;7.87;61.94
83122;BME280;73002;47.238;9.006;2023-12-20T06:50:47;95247.28;;;7.99;61.71
83122;BME280;73002;47.238;9.006;2023-12-20T06:53:14;95249.06;;;7.91;62.24
83122;BME280;73002;47.238;9.006;2023-12-20T06:55:39;95250.81;;;7.74;62.30
83122;BME280;73002;47.238;9.006;2023-12-20T06:58:05;95268.81;;;7.92;62.36
83122;BME280;73002;47.238;9.006;2023-12-20T07:00:32;95267.38;;;7.89;62.00
83122;BME280;73002;47.238;9.006;2023-12-20T07:02:57;95275.00;;;8.15;61.83
83122;BME280;73002;47.238;9.006;2023-12-20T07:05:24;95261.19;;;7.82;62.39
83122;BME280;73002;47.238;9.006;2023-12-20T07:07:49;95275.31;;;8.04;62.12
83122;BME280;73002;47.238;9.006;2023-12-20T07:10:15;95259.59;;;7.89;62.64
83122;BME280;73002;47.238;9.006;2023-12-20T07:12:40;95283.53;;;7.91;62.44
83122;BME280;73002;47.238;9.006;2023-12-20T07:15:06;95273.34;;;7.90;62.52
83122;BME280;73002;47.238;9.006;2023-12-20T07:17:33;95273.38;;;7.98;62.06
83122;BME280;73002;47.238;9.006;2023-12-20T07:20:00;95274.50;;;7.95;62.10
83122;BME280;73002;47.238;9.006;2023-12-20T07:22:31;95294.44;;;8.11;61.43
83122;BME280;73002;47.238;9.006;2023-12-20T07:24:58;95285.38;;;8.15;61.28
83122;BME280;73002;47.238;9.006;2023-12-20T07:27:24;95283.13;;;7.53;63.61
83122;BME280;73002;47.238;9.006;2023-12-20T07:29:49;95264.25;;;7.69;62.52
83122;BME280;73002;47.238;9.006;2023-12-20T07:32:15;95276.56;;;7.83;62.53
83122;BME280;73002;47.238;9.006;2023-12-20T07:34:40;95270.28;;;7.94;62.10
83122;BME280;73002;47.238;9.006;2023-12-20T07:37:05;95275.28;;;7.79;62.26
83122;BME280;73002;47.238;9.006;2023-12-20T07:39:31;95270.53;;;7.67;62.61
83122;BME280;73002;47.238;9.006;2023-12-20T07:41:56;95271.88;;;7.79;62.57
83122;BME280;73002;47.238;9.006;2023-12-20T07:44:22;95272.38;;;7.91;62.01
83122;BME280;73002;47.238;9.006;2023-12-20T07:46:49;95277.22;;;7.94;61.70
83122;BME280;73002;47.238;9.006;2023-12-20T07:49:15;95291.50;;;8.06;61.75
83122;BME280;73002;47.238;9.006;2023-12-20T07:51:40;95288.13;;;8.06;62.24
83122;BME280;73002;47.238;9.006;2023-12-20T07:54:06;95287.94;;;7.99;62.70
83122;BME280;73002;47.238;9.006;2023-12-20T07:56:33;95284.84;;;7.95;62.90
83122;BME280;73002;47.238;9.006;2023-12-20T07:58:58;95279.34;;;7.98;63.11
83122;BME280;73002;47.238;9.006;2023-12-20T08:01:24;95275.31;;;7.96;62.91
83122;BME280;73002;47.238;9.006;2023-12-20T08:03:49;95292.66;;;8.12;62.34
83122;BME280;73002;47.238;9.006;2023-12-20T08:06:15;95297.69;;;8.21;61.91
83122;BME280;73002;47.238;9.006;2023-12-20T08:08:42;95303.00;;;8.20;61.95
83122;BME280;73002;47.238;9.006;2023-12-20T08:11:08;95305.28;;;8.23;61.98
83122;BME280;73002;47.238;9.006;2023-12-20T08:13:33;95298.16;;;8.17;62.04
83122;BME280;73002;47.238;9.006;2023-12-20T08:15:58;95307.34;;;8.03;62.44
83122;BME280;73002;47.238;9.006;2023-12-20T08:18:24;95309.97;;;8.11;62.53
83122;BME280;73002;47.238;9.006;2023-12-20T08:20:49;95310.13;;;8.18;62.23
83122;BME280;73002;47.238;9.006;2023-12-20T08:23:18;95309.34;;;8.09;62.71
83122;BME280;73002;47.238;9.006;2023-12-20T08:25:43;95323.91;;;8.18;62.19
83122;BME280;73002;47.238;9.006;2023-12-20T08:28:08;95320.16;;;8.13;63.06
83122;BME280;73002;47.238;9.006;2023-12-20T08:30:34;95321.31;;;8.10;62.77
83122;BME280;73002;47.238;9.006;2023-12-20T08:33:00;95325.47;;;7.95;63.80
83122;BME280;73002;47.238;9.006;2023-12-20T08:35:26;95319.50;;;8.02;62.96
83122;BME280;73002;47.238;9.006;2023-12-20T08:37:52;95298.00;;;8.10;62.80
83122;BME280;73002;47.238;9.006;2023-12-20T08:40:18;95307.88;;;8.23;62.25
83122;BME280;73002;47.238;9.006;2023-12-20T08:42:43;95303.50;;;8.23;62.38
83122;BME280;73002;47.238;9.006;2023-12-20T08:45:10;95315.16;;;8.11;62.84
83122;BME280;73002;47.238;9.006;2023-12-20T08:47:35;95312.72;;;8.18;62.83
83122;BME280;73002;47.238;9.006;2023-12-20T08:50:00;95300.06;;;7.90;63.75
83122;BME280;73002;47.238;9.006;2023-12-20T08:52:27;95317.16;;;8.42;62.60
83122;BME280;73002;47.238;9.006;2023-12-20T08:54:53;95315.84;;;8.54;61.95
83122;BME280;73002;47.238;9.006;2023-12-20T08:57:22;95309.19;;;8.27;62.56
83122;BME280;73002;47.238;9.006;2023-12-20T08:59:49;95311.47;;;8.38;62.95
83122;BME280;73002;47.238;9.006;2023-12-20T09:02:18;95317.16;;;8.50;62.87
83122;BME280;73002;47.238;9.006;2023-12-20T09:04:43;95310.69;;;8.63;61.67
83122;BME280;73002;47.238;9.006;2023-12-20T09:07:24;95312.97;;;8.49;61.51
83122;BME280;73002;47.238;9.006;2023-12-20T09:09:55;95302.75;;;8.72;61.34
83122;BME280;73002;47.238;9.006;2023-12-20T10:40:38;95262.19;;;9.35;62.00
83122;BME280;73002;47.238;9.006;2023-12-20T10:43:04;95257.69;;;9.29;62.49
83122;BME280;73002;47.238;9.006;2023-12-20T10:45:33;95265.91;;;9.41;62.14
83122;BME280;73002;47.238;9.006;2023-12-20T10:47:59;95247.00;;;9.24;62.52
83122;BME280;73002;47.238;9.006;2023-12-20T11:08:01;95238.19;;;9.33;62.81
83122;BME280;73002;47.238;9.006;2023-12-20T11:10:34;95243.88;;;9.37;63.34
83122;BME280;73002;47.238;9.006;2023-12-20T11:13:10;95240.28;;;9.38;63.05
83122;BME280;73002;47.238;9.006;2023-12-20T11:15:37;95234.88;;;9.48;62.51
83122;BME280;73002;47.238;9.006;2023-12-20T11:18:05;95226.28;;;9.16;63.45
83122;BME280;73002;47.238;9.006;2023-12-20T11:20:39;95226.16;;;9.41;62.65
83122;BME280;73002;47.238;9.006;2023-12-20T11:23:05;95233.81;;;9.34;63.10
83122;BME280;73002;47.238;9.006;2023-12-20T11:25:46;95241.75;;;9.32;62.79
83122;BME280;73002;47.238;9.006;2023-12-20T11:28:12;95224.63;;;9.15;63.58
83122;BME280;73002;47.238;9.006;2023-12-20T11:30:47;95228.31;;;9.29;62.67
83122;BME280;73002;47.238;9.006;2023-12-20T11:33:16;95220.72;;;9.19;63.40
83122;BME280;73002;47.238;9.006;2023-12-20T11:35:43;95236.06;;;9.37;62.22
83122;BME280;73002;47.238;9.006;2023-12-20T11:38:10;95231.59;;;9.23;63.31
83122;BME280;73002;47.238;9.006;2023-12-20T11:40:36;95224.59;;;9.23;63.03
83122;BME280;73002;47.238;9.006;2023-12-20T11:43:03;95231.25;;;9.26;63.48
83122;BME280;73002;47.238;9.006;2023-12-20T11:45:30;95222.75;;;9.00;63.77
83122;BME280;73002;47.238;9.006;2023-12-20T11:47:56;95229.66;;;9.16;63.40
83122;BME280;73002;47.238;9.006;2023-12-20T11:50:23;95237.03;;;9.36;62.85
83122;BME280;73002;47.238;9.006;2023-12-20T11:52:49;95241.63;;;9.26;63.25
83122;BME280;73002;47.238;9.006;2023-12-20T11:55:15;95230.09;;;9.28;63.20
83122;BME280;73002;47.238;9.006;2023-12-20T11:57:43;95234.97;;;9.31;63.07
83122;BME280;73002;47.238;9.006;2023-12-20T12:00:12;95225.53;;;8.91;64.38
83122;BME280;73002;47.238;9.006;2023-12-20T12:02:38;95224.97;;;9.12;63.82
83122;BME280;73002;47.238;9.006;2023-12-20T12:05:04;95222.09;;;9.07;63.86
83122;BME280;73002;47.238;9.006;2023-12-20T12:07:31;95221.13;;;9.39;62.58
83122;BME280;73002;47.238;9.006;2023-12-20T12:09:57;95231.72;;;9.29;63.23
83122;BME280;73002;47.238;9.006;2023-12-20T12:12:22;95228.75;;;9.41;63.13
83122;BME280;73002;47.238;9.006;2023-12-20T12:14:50;95224.47;;;9.48;62.39
83122;BME280;73002;47.238;9.006;2023-12-20T12:17:16;95210.59;;;9.41;63.13
83122;BME280;73002;47.238;9.006;2023-12-20T12:19:42;95213.19;;;9.41;62.78
83122;BME280;73002;47.238;9.006;2023-12-20T12:22:09;95191.22;;;9.12;63.19
83122;BME280;73002;47.238;9.006;2023-12-20T12:24:43;95211.44;;;8.93;64.30
83122;BME280;73002;47.238;9.006;2023-12-20T12:27:09;95203.50;;;9.26;62.97
83122;BME280;73002;47.238;9.006;2023-12-20T12:29:35;95216.09;;;9.37;63.19
83122;BME280;73002;47.238;9.006;2023-12-20T12:32:07;95217.91;;;9.29;63.06
83122;BME280;73002;47.238;9.006;2023-12-20T12:34:34;95206.03;;;9.43;62.31
83122;BME280;73002;47.238;9.006;2023-12-20T12:37:00;95209.31;;;8.89;64.31
83122;BME280;73002;47.238;9.006;2023-12-20T12:39:25;95204.81;;;8.83;64.36
83122;BME280;73002;47.238;9.006;2023-12-20T12:41:54;95215.25;;;9.14;63.71
83122;BME280;73002;47.238;9.006;2023-12-20T12:44:19;95207.78;;;9.11;63.58
83122;BME280;73002;47.238;9.006;2023-12-20T12:46:46;95205.03;;;9.12;63.99
83122;BME280;73002;47.238;9.006;2023-12-20T12:49:12;95213.38;;;9.31;63.31
83122;BME280;73002;47.238;9.006;2023-12-20T12:51:38;95201.06;;;8.93;64.27
83122;BME280;73002;47.238;9.006;2023-12-20T12:54:05;95200.59;;;9.21;62.74
83122;BME280;73002;47.238;9.006;2023-12-20T12:56:31;95213.72;;;9.28;61.95
83122;BME280;73002;47.238;9.006;2023-12-20T12:58:59;95207.47;;;9.14;62.47
83122;BME280;73002;47.238;9.006;2023-12-20T13:01:24;95198.41;;;9.02;62.27
83122;BME280;73002;47.238;9.006;2023-12-20T13:03:51;95214.59;;;9.12;62.23
83122;BME280;73002;47.238;9.006;2023-12-20T13:06:16;95216.31;;;9.59;60.64
83122;BME280;73002;47.238;9.006;2023-12-20T13:08:42;95205.09;;;9.35;61.43
83122;BME280;73002;47.238;9.006;2023-12-20T13:11:09;95220.03;;;9.33;61.92
83122;BME280;73002;47.238;9.006;2023-12-20T13:13:35;95216.97;;;9.30;61.83
83122;BME280;73002;47.238;9.006;2023-12-20T13:16:00;95215.97;;;9.31;62.00
83122;BME280;73002;47.238;9.006;2023-12-20T13:18:26;95214.72;;;9.58;61.07
83122;BME280;73002;47.238;9.006;2023-12-20T13:20:51;95209.34;;;9.28;62.37
83122;BME280;73002;47.238;9.006;2023-12-20T13:23:17;95209.88;;;9.15;62.67
83122;BME280;73002;47.238;9.006;2023-12-20T13:25:45;95225.97;;;9.11;63.09
83122;BME280;73002;47.238;9.006;2023-12-20T13:28:14;95227.19;;;9.23;62.03
83122;BME280;73002;47.238;9.006;2023-12-20T13:30:39;95238.59;;;9.14;62.24
83122;BME280;73002;47.238;9.006;2023-12-20T13:33:05;95224.16;;;9.11;61.62
83122;BME280;73002;47.238;9.006;2023-12-20T13:35:33;95238.53;;;9.30;60.64
83122;BME280;73002;47.238;9.006;2023-12-20T13:37:59;95238.53;;;9.30;60.80
83122;BME280;73002;47.238;9.006;2023-12-20T13:40:25;95237.56;;;9.31;59.91
83122;BME280;73002;47.238;9.006;2023-12-20T13:42:51;95221.84;;;9.25;58.54
83122;BME280;73002;47.238;9.006;2023-12-20T13:45:16;95230.50;;;9.09;58.97
83122;BME280;73002;47.238;9.006;2023-12-20T13:47:42;95229.94;;;8.82;60.17
83122;BME280;73002;47.238;9.006;2023-12-20T13:50:07;95240.03;;;8.69;60.81
83122;BME280;73002;47.238;9.006;2023-12-20T13:52:33;95229.66;;;8.52;61.02
83122;BME280;73002;47.238;9.006;2023-12-20T13:54:58;95240.69;;;8.63;59.58
83122;BME280;73002;47.238;9.006;2023-12-20T13:57:24;95245.16;;;8.93;59.19
83122;BME280;73002;47.238;9.006;2023-12-20T13:59:49;95256.19;;;8.79;60.51
83122;BME280;73002;47.238;9.006;2023-12-20T14:02:14;95246.16;;;8.84;60.52
83122;BME280;73002;47.238;9.006;2023-12-20T14:04:41;95262.03;;;8.81;60.75
83122;BME280;73002;47.238;9.006;2023-12-20T14:07:07;95264.44;;;8.99;59.88
83122;BME280;73002;47.238;9.006;2023-12-20T14:09:33;95266.25;;;8.82;60.26
83122;BME280;73002;47.238;9.006;2023-12-20T14:12:01;95271.78;;;8.63;61.42
83122;BME280;73002;47.238;9.006;2023-12-20T14:14:27;95268.06;;;8.65;61.73
83122;BME280;73002;47.238;9.006;2023-12-20T14:16:53;95270.97;;;8.70;60.80
83122;BME280;73002;47.238;9.006;2023-12-20T14:19:19;95272.13;;;8.43;61.83
83122;BME280;73002;47.238;9.006;2023-12-20T14:21:44;95278.91;;;8.52;61.99
83122;BME280;73002;47.238;9.006;2023-12-20T14:24:14;95280.53;;;8.78;61.12
83122;BME280;73002;47.238;9.006;2023-12-20T14:26:43;95288.47;;;8.60;61.91
83122;BME280;73002;47.238;9.006;2023-12-20T14:29:08;95287.03;;;8.49;61.81
83122;BME280;73002;47.238;9.006;2023-12-20T14:31:34;95277.94;;;8.61;59.92
83122;BME280;73002;47.238;9.006;2023-12-20T14:33:59;95275.38;;;8.53;59.41
83122;BME280;73002;47.238;9.006;2023-12-20T14:36:29;95284.56;;;8.64;58.43
83122;BME280;73002;47.238;9.006;2023-12-20T14:38:57;95292.53;;;8.63;58.76
83122;BME280;73002;47.238;9.006;2023-12-20T14:41:22;95289.94;;;8.63;57.64
83122;BME280;73002;47.238;9.006;2023-12-20T14:43:50;95303.53;;;8.48;57.46
83122;BME280;73002;47.238;9.006;2023-12-20T14:46:17;95305.81;;;8.51;57.54
83122;BME280;73002;47.238;9.006;2023-12-20T14:48:42;95312.63;;;8.52;57.41
83122;BME280;73002;47.238;9.006;2023-12-20T14:51:08;95309.88;;;8.46;56.89